KMOX/MOX METAR and TAF weather

Enter ICAO airport designator
Station Type Date Time Source
KMOX METAR 2019/04/20 22:35 UTC NOAA

KMOX 202235Z AUTO 21009KT 10SM CLR 27/10 A2957 RMK AO2


Station Type Date Time Source
KMOX Decoded METAR 2019/04/20 22:35 UTC NOAA

Morris, Morris Municipal Airport, MN, United States (KMOX) 45-34N 095-58W
Apr 20, 2019 - 06:35 PM EDT / 2019.04.20 2235 UTC
Wind: from the SSW (210 degrees) at 10 MPH (9 KT):0
Visibility: 10 mile(s):0
Sky conditions: clear
Temperature: 80 F (27 C)
Dew Point: 50 F (10 C)
Relative Humidity: 34%
Pressure (altimeter): 29.57 in. Hg (1001 hPa)
ob: KMOX 202235Z AUTO 21009KT 10SM CLR 27/10 A2957 RMK AO2
cycle: 22

Station Type Date Time Source
KMOX TAF UTC NOAA

Error!

Example: see airport list